MSC Jordan — HPMK — position and weather

sailwx.info

Track history (hours):
 
Tides and Currents Weather Stations Pressure Air Temp Water Temp Dewpoint Dewpoint Depression Visibility Wind Speed Wind Dir Waves Ship Positions

MSC Jordan

Last reported at 2015-Aug-19 21:21 UTC. Time now 2015-Sep-02 14:51 UTC.
Position N 36°23' W 012°32'.
Warning: this ship's position is 13 days out of date.

Length 237 m; draft 11.1 m.

Type: Ship. MMSI: 355194000.

Date/timePositionNaut miles runAvg speedWind from/ knotsBaromVisibWave heightAir tempDewpointWater temp
2015-Aug-19 21:21N 36°23' W 012°32'3216.5
2015-Aug-19 19:24N 36°54' W 012°21'1516.4
2015-Aug-19 18:28N 37°08' W 012°15'1516.7
2015-Aug-19 17:33N 37°23' W 012°10'1616.3
2015-Aug-19 16:33N 37°39' W 012°05'1616.3
2015-Aug-19 15:33N 37°54' W 011°59'1816.7
2015-Aug-19 14:28N 38°12' W 011°52'1616.6
2015-Aug-19 13:32N 38°27' W 011°48'8116.4
2015-Aug-19 08:33N 39°45' W 011°18'68216.2
2015-Aug-17 14:24N 49°43' W 003°38'2318.8
2015-Aug-17 13:12N 49°54' W 003°08'1618.1
2015-Aug-17 12:20N 50°01' W 002°45'1317.0
2015-Aug-17 11:33N 50°03' W 002°25'1615.5
2015-Aug-17 10:33N 49°60' W 002°02'3213.8
2015-Aug-17 08:15N 49°48' W 001°15'1012.6
2015-Aug-17 07:29N 49°44' W 001°02'1415.1
2015-Aug-17 06:33N 49°39' W 000°42'1716.7
2015-Aug-17 05:33N 49°34' W 000°17'1615.8
2015-Aug-17 04:33N 49°28' E 000°06'2 2.1
2015-Aug-17 03:33N 49°28' E 000°09'0 0.0
2015-Aug-17 02:31N 49°28' E 000°09'0 0.0
2015-Aug-17 01:32N 49°28' E 000°09'0 0.0
2015-Aug-17 00:32N 49°28' E 000°09'0 0.0
2015-Aug-16 23:32N 49°28' E 000°09'0 0.0
2015-Aug-16 22:31N 49°28' E 000°09'0 0.0
2015-Aug-16 21:32N 49°28' E 000°09'0 0.0
2015-Aug-16 20:33N 49°28' E 000°09'0 0.0
2015-Aug-16 19:33N 49°28' E 000°09'4 3.7
2015-Aug-16 18:33N 49°29' E 000°04'1010.0
2015-Aug-16 17:33N 49°32' W 000°11'4 3.6
2015-Aug-16 16:33N 49°35' W 000°15'7 7.2
2015-Aug-16 15:33N 49°42' W 000°14'1211.8
2015-Aug-16 14:33N 49°54' W 000°11'9 9.1
2015-Aug-16 13:33N 50°03' W 000°14'1010.3
2015-Aug-16 12:33N 50°13' W 000°11'2613.2
2015-Aug-16 10:33N 50°32' E 000°18'1414.0
2015-Aug-16 09:33N 50°37' E 000°38'1515.3
2015-Aug-16 08:33N 50°46' E 000°58'1817.5
2015-Aug-16 07:31N 50°57' E 001°21'1818.6
2015-Aug-16 06:34N 51°10' E 001°40'1616.5
2015-Aug-16 05:34N 51°25' E 001°51'1514.7
2015-Aug-16 04:33N 51°39' E 001°46'1413.5
2015-Aug-16 03:33N 51°52' E 001°37'1211.8
2015-Aug-16 02:34N 51°56' E 001°19'2 2.1
2015-Aug-16 01:33N 51°58' E 001°18'0 0.0
2015-Aug-16 00:33N 51°58' E 001°18'0 0.0
2015-Aug-15 23:31N 51°58' E 001°18'0 0.0
2015-Aug-15 22:32N 51°58' E 001°18'0 0.0
2015-Aug-15 21:33N 51°58' E 001°18'0 0.0
2015-Aug-15 20:31N 51°58' E 001°18'0 0.0
2015-Aug-15 19:32N 51°58' E 001°18'0 0.0
2015-Aug-15 18:31N 51°58' E 001°18'0 0.0
2015-Aug-15 17:31N 51°58' E 001°18'0 0.0
2015-Aug-15 16:31N 51°58' E 001°18'0 0.0
2015-Aug-15 15:31N 51°58' E 001°18'0 0.0
2015-Aug-15 14:31N 51°58' E 001°18'0 0.0
2015-Aug-15 13:31N 51°58' E 001°18'0 0.0
2015-Aug-15 12:31N 51°58' E 001°18'0 0.0
2015-Aug-15 11:31N 51°58' E 001°18'0 0.0
2015-Aug-15 10:31N 51°58' E 001°18'0 0.0
2015-Aug-15 09:33N 51°58' E 001°18'4 3.8
2015-Aug-15 08:33N 51°56' E 001°23'1111.2
2015-Aug-15 07:34N 51°51' E 001°40'2 1.6
2015-Aug-15 06:33N 51°53' E 001°40'1 0.5
2015-Aug-15 05:32N 51°53' E 001°41'0 0.1
2015-Aug-15 04:32N 51°54' E 001°41'0 0.0
2015-Aug-15 03:32N 51°54' E 001°41'0 0.0
2015-Aug-15 02:32N 51°54' E 001°41'0 0.1
2015-Aug-15 01:32N 51°54' E 001°41'0 0.2
2015-Aug-15 00:32N 51°53' E 001°41'0 0.2
2015-Aug-14 23:32N 51°53' E 001°40'0 0.1
2015-Aug-14 22:32N 51°53' E 001°40'0 0.0
2015-Aug-14 21:32N 51°53' E 001°40'0 0.0
2015-Aug-14 20:32N 51°53' E 001°40'0 0.1
2015-Aug-14 19:32N 51°53' E 001°40'0 0.3
2015-Aug-14 18:32N 51°54' E 001°40'0 0.1
2015-Aug-14 17:32N 51°54' E 001°41'0 0.0
2015-Aug-14 16:32N 51°54' E 001°41'0 0.0
2015-Aug-14 15:32N 51°54' E 001°41'0 0.0
2015-Aug-14 14:32N 51°54' E 001°41'0 0.0
2015-Aug-14 13:32N 51°54' E 001°41'0 0.0
2015-Aug-14 12:32N 51°54' E 001°41'0 0.2
2015-Aug-14 11:32N 51°54' E 001°40'0 0.2
2015-Aug-14 10:32N 51°53' E 001°40'0 0.0
2015-Aug-14 09:32N 51°53' E 001°40'0 0.0
2015-Aug-14 08:32N 51°53' E 001°40'0 0.0
2015-Aug-14 07:32N 51°53' E 001°40'0 0.0
2015-Aug-14 06:32N 51°53' E 001°40'0 0.2
2015-Aug-14 05:32N 51°53' E 001°40'0 0.3
2015-Aug-14 04:32N 51°54' E 001°41'0 0.0
2015-Aug-14 03:32N 51°54' E 001°41'0 0.0
2015-Aug-14 02:32N 51°54' E 001°41'0 0.0
2015-Aug-14 01:32N 51°54' E 001°41'0 0.0
2015-Aug-14 00:32N 51°54' E 001°41'0 0.3
2015-Aug-13 23:32N 51°53' E 001°40'0 0.2
2015-Aug-13 22:32N 51°53' E 001°40'0 0.0
2015-Aug-13 21:32N 51°53' E 001°40'0 0.0
2015-Aug-13 20:32N 51°53' E 001°40'0 0.0
2015-Aug-13 19:32N 51°53' E 001°40'0 0.0
2015-Aug-13 18:32N 51°53' E 001°40'0 0.0
2015-Aug-13 17:32N 51°53' E 001°40'0 0.1
2015-Aug-13 16:32N 51°53' E 001°41'0 0.2
2015-Aug-13 15:32N 51°54' E 001°41'0 0.0
2015-Aug-13 14:32N 51°54' E 001°41'0 0.1
2015-Aug-13 13:32N 51°53' E 001°41'0 0.3
2015-Aug-13 12:32N 51°53' E 001°40'0 0.2
2015-Aug-13 11:32N 51°53' E 001°40'0 0.1
2015-Aug-13 10:32N 51°53' E 001°40'0 0.0
2015-Aug-13 09:32N 51°53' E 001°40'0 0.0
2015-Aug-13 08:32N 51°53' E 001°40'0 0.0
2015-Aug-13 07:32N 51°53' E 001°40'0 0.0
2015-Aug-13 06:32N 51°53' E 001°40'0 0.0
2015-Aug-13 05:32N 51°53' E 001°40'0 0.0
2015-Aug-13 04:32N 51°53' E 001°40'0 0.3
2015-Aug-13 03:32N 51°54' E 001°40'7 7.7
2015-Aug-13 02:34N 51°49' E 001°49'1717.1
2015-Aug-13 01:34N 51°32' E 001°52'1616.2
2015-Aug-13 00:34N 51°22' E 002°12'1514.7
2015-Aug-12 23:34N 51°23' E 002°35'1515.0
2015-Aug-12 22:33N 51°24' E 002°59'1616.2
2015-Aug-12 21:33N 51°25' E 003°25'1110.7
2015-Aug-12 20:34N 51°25' E 003°43'1010.3
2015-Aug-12 19:34N 51°26' E 003°59'1211.5
2015-Aug-12 18:34N 51°21' E 004°16'1 1.0
2015-Aug-12 17:32N 51°21' E 004°17'2 1.8
2015-Aug-12 16:33N 51°20' E 004°19'1 0.5
2015-Aug-12 15:30N 51°20' E 004°20'0 0.0
2015-Aug-12 14:30N 51°20' E 004°20'0 0.0
2015-Aug-12 13:33N 51°20' E 004°20'0 0.0
2015-Aug-12 12:28N 51°20' E 004°20'0 0.0
2015-Aug-12 11:28N 51°20' E 004°20'0 0.0
2015-Aug-12 10:33N 51°20' E 004°20'0 0.0
2015-Aug-12 09:33N 51°20' E 004°20'0 0.0
2015-Aug-12 08:31N 51°20' E 004°20'0 0.0
2015-Aug-12 07:31N 51°20' E 004°20'0 0.0
2015-Aug-12 06:32N 51°20' E 004°20'0 0.0
2015-Aug-12 05:33N 51°20' E 004°20'0 0.0
2015-Aug-12 04:33N 51°20' E 004°20'0 0.0
2015-Aug-12 03:33N 51°20' E 004°20'0 0.0
2015-Aug-12 02:33N 51°20' E 004°20'0 0.0
2015-Aug-12 01:30N 51°20' E 004°20'0 0.0
2015-Aug-12 00:33N 51°20' E 004°20'0 0.0
2015-Aug-11 23:33N 51°20' E 004°20'0 0.0
2015-Aug-11 22:33N 51°20' E 004°20'0 0.0
2015-Aug-11 21:32N 51°20' E 004°20'0 0.0
2015-Aug-11 20:32N 51°20' E 004°20'0 0.2
2015-Aug-11 19:33N 51°20' E 004°20'2 2.0
2015-Aug-11 18:34N 51°21' E 004°17'0 0.0
2015-Aug-11 17:32N 51°21' E 004°17'3 2.6
2015-Aug-11 16:33N 51°22' E 004°13'10 9.6
2015-Aug-11 15:34N 51°26' E 003°60'1010.3
2015-Aug-11 14:34N 51°22' E 003°45'10 9.5
2015-Aug-11 13:33N 51°25' E 003°30'1312.9
2015-Aug-11 12:33N 51°24' E 003°10'8 7.9
2015-Aug-11 11:33N 51°32' E 003°08'1414.0
2015-Aug-11 10:33N 51°45' E 003°13'3 3.2
2015-Aug-11 09:33N 51°48' E 003°15'1010.1
2015-Aug-11 08:33N 51°58' E 003°20'1918.5
2015-Aug-11 07:33N 52°17' E 003°24'2020.4
2015-Aug-11 06:33N 52°37' E 003°30'1817.4
2015-Aug-11 05:33N 52°50' E 003°49'3711.2
2015-Aug-11 02:17N 53°17' E 004°29'1010.6
2015-Aug-11 01:20N 53°27' E 004°34'1011.0
2015-Aug-11 00:23N 53°37' E 004°40'1511.6
2015-Aug-10 23:05N 53°51' E 004°49'611.7
2015-Aug-10 22:33N 53°57' E 004°53'1211.7
2015-Aug-10 21:33N 54°08' E 004°60'1111.6
2015-Aug-10 20:34N 54°18' E 005°07'1211.6
2015-Aug-10 19:34N 54°29' E 005°16'1211.6
2015-Aug-10 18:32N 54°39' E 005°26'1111.4
2015-Aug-10 17:34N 54°49' E 005°37'1111.3
2015-Aug-10 16:33N 54°58' E 005°47'1111.2
2015-Aug-10 15:32N 55°08' E 005°58'1111.1
2015-Aug-10 14:33N 55°17' E 006°07'1111.2
2015-Aug-10 13:33N 55°27' E 006°17'1111.4
2015-Aug-10 12:33N 55°36' E 006°28'1211.3
2015-Aug-10 11:31N 55°47' E 006°39'1111.3
2015-Aug-10 10:33N 55°56' E 006°49'1111.2
2015-Aug-10 09:33N 56°05' E 007°01'6 6.6
2015-Aug-10 08:33N 56°11' E 007°06'1514.7
2015-Aug-10 07:33N 56°23' E 007°20'2320.1
2015-Aug-10 06:24N 56°43' E 007°43'1617.0
2015-Aug-10 05:26N 56°57' E 007°59'1415.4
2015-Aug-10 04:33N 57°08' E 008°12'2015.2
2015-Aug-10 03:15N 57°22' E 008°38'1115.8
2015-Aug-10 02:33N 57°29' E 008°54'1615.9
2015-Aug-10 01:33N 57°38' E 009°18'1716.1
2015-Aug-10 00:31N 57°42' E 009°48'1515.8
2015-Aug-09 23:33N 57°46' E 010°16'1515.4
2015-Aug-09 22:33N 57°48' E 010°45'1515.2
2015-Aug-09 21:33N 57°39' E 011°08'  
Track history (hours):
 
Tides and Currents Weather Stations Pressure Air Temp Water Temp Dewpoint Dewpoint Depression Visibility Wind Speed Wind Dir Waves Ship Positions

MSC Jordan

Last reported at 2015-Aug-19 21:21 UTC. Time now 2015-Sep-02 14:51 UTC.
Position N 36°23' W 012°32'.
Warning: this ship's position is 13 days out of date.

Length 237 m; draft 11.1 m.

Type: Ship. MMSI: 355194000.

Date/timePositionNaut miles runAvg speedWind from/ knotsBaromVisibWave heightAir tempDewpointWater temp
2015-Aug-19 21:21N 36°23' W 012°32'3216.5
2015-Aug-19 19:24N 36°54' W 012°21'1516.4
2015-Aug-19 18:28N 37°08' W 012°15'1516.7
2015-Aug-19 17:33N 37°23' W 012°10'1616.3
2015-Aug-19 16:33N 37°39' W 012°05'1616.3
2015-Aug-19 15:33N 37°54' W 011°59'1816.7
2015-Aug-19 14:28N 38°12' W 011°52'1616.6
2015-Aug-19 13:32N 38°27' W 011°48'8116.4
2015-Aug-19 08:33N 39°45' W 011°18'68216.2
2015-Aug-17 14:24N 49°43' W 003°38'2318.8
2015-Aug-17 13:12N 49°54' W 003°08'1618.1
2015-Aug-17 12:20N 50°01' W 002°45'1317.0
2015-Aug-17 11:33N 50°03' W 002°25'1615.5
2015-Aug-17 10:33N 49°60' W 002°02'3213.8
2015-Aug-17 08:15N 49°48' W 001°15'1012.6
2015-Aug-17 07:29N 49°44' W 001°02'1415.1
2015-Aug-17 06:33N 49°39' W 000°42'1716.7
2015-Aug-17 05:33N 49°34' W 000°17'1615.8
2015-Aug-17 04:33N 49°28' E 000°06'2 2.1
2015-Aug-17 03:33N 49°28' E 000°09'0 0.0
2015-Aug-17 02:31N 49°28' E 000°09'0 0.0
2015-Aug-17 01:32N 49°28' E 000°09'0 0.0
2015-Aug-17 00:32N 49°28' E 000°09'0 0.0
2015-Aug-16 23:32N 49°28' E 000°09'0 0.0
2015-Aug-16 22:31N 49°28' E 000°09'0 0.0
2015-Aug-16 21:32N 49°28' E 000°09'0 0.0
2015-Aug-16 20:33N 49°28' E 000°09'0 0.0
2015-Aug-16 19:33N 49°28' E 000°09'4 3.7
2015-Aug-16 18:33N 49°29' E 000°04'1010.0
2015-Aug-16 17:33N 49°32' W 000°11'4 3.6
2015-Aug-16 16:33N 49°35' W 000°15'7 7.2
2015-Aug-16 15:33N 49°42' W 000°14'1211.8
2015-Aug-16 14:33N 49°54' W 000°11'9 9.1
2015-Aug-16 13:33N 50°03' W 000°14'1010.3
2015-Aug-16 12:33N 50°13' W 000°11'2613.2
2015-Aug-16 10:33N 50°32' E 000°18'1414.0
2015-Aug-16 09:33N 50°37' E 000°38'1515.3
2015-Aug-16 08:33N 50°46' E 000°58'1817.5
2015-Aug-16 07:31N 50°57' E 001°21'1818.6
2015-Aug-16 06:34N 51°10' E 001°40'1616.5
2015-Aug-16 05:34N 51°25' E 001°51'1514.7
2015-Aug-16 04:33N 51°39' E 001°46'1413.5
2015-Aug-16 03:33N 51°52' E 001°37'1211.8
2015-Aug-16 02:34N 51°56' E 001°19'2 2.1
2015-Aug-16 01:33N 51°58' E 001°18'0 0.0
2015-Aug-16 00:33N 51°58' E 001°18'0 0.0
2015-Aug-15 23:31N 51°58' E 001°18'0 0.0
2015-Aug-15 22:32N 51°58' E 001°18'0 0.0
2015-Aug-15 21:33N 51°58' E 001°18'0 0.0
2015-Aug-15 20:31N 51°58' E 001°18'0 0.0
2015-Aug-15 19:32N 51°58' E 001°18'0 0.0
2015-Aug-15 18:31N 51°58' E 001°18'0 0.0
2015-Aug-15 17:31N 51°58' E 001°18'0 0.0
2015-Aug-15 16:31N 51°58' E 001°18'0 0.0
2015-Aug-15 15:31N 51°58' E 001°18'0 0.0
2015-Aug-15 14:31N 51°58' E 001°18'0 0.0
2015-Aug-15 13:31N 51°58' E 001°18'0 0.0
2015-Aug-15 12:31N 51°58' E 001°18'0 0.0
2015-Aug-15 11:31N 51°58' E 001°18'0 0.0
2015-Aug-15 10:31N 51°58' E 001°18'0 0.0
2015-Aug-15 09:33N 51°58' E 001°18'4 3.8
2015-Aug-15 08:33N 51°56' E 001°23'1111.2
2015-Aug-15 07:34N 51°51' E 001°40'2 1.6
2015-Aug-15 06:33N 51°53' E 001°40'1 0.5
2015-Aug-15 05:32N 51°53' E 001°41'0 0.1
2015-Aug-15 04:32N 51°54' E 001°41'0 0.0
2015-Aug-15 03:32N 51°54' E 001°41'0 0.0
2015-Aug-15 02:32N 51°54' E 001°41'0 0.1
2015-Aug-15 01:32N 51°54' E 001°41'0 0.2
2015-Aug-15 00:32N 51°53' E 001°41'0 0.2
2015-Aug-14 23:32N 51°53' E 001°40'0 0.1
2015-Aug-14 22:32N 51°53' E 001°40'0 0.0
2015-Aug-14 21:32N 51°53' E 001°40'0 0.0
2015-Aug-14 20:32N 51°53' E 001°40'0 0.1
2015-Aug-14 19:32N 51°53' E 001°40'0 0.3
2015-Aug-14 18:32N 51°54' E 001°40'0 0.1
2015-Aug-14 17:32N 51°54' E 001°41'0 0.0
2015-Aug-14 16:32N 51°54' E 001°41'0 0.0
2015-Aug-14 15:32N 51°54' E 001°41'0 0.0
2015-Aug-14 14:32N 51°54' E 001°41'0 0.0
2015-Aug-14 13:32N 51°54' E 001°41'0 0.0
2015-Aug-14 12:32N 51°54' E 001°41'0 0.2
2015-Aug-14 11:32N 51°54' E 001°40'0 0.2
2015-Aug-14 10:32N 51°53' E 001°40'0 0.0
2015-Aug-14 09:32N 51°53' E 001°40'0 0.0
2015-Aug-14 08:32N 51°53' E 001°40'0 0.0
2015-Aug-14 07:32N 51°53' E 001°40'0 0.0
2015-Aug-14 06:32N 51°53' E 001°40'0 0.2
2015-Aug-14 05:32N 51°53' E 001°40'0 0.3
2015-Aug-14 04:32N 51°54' E 001°41'0 0.0
2015-Aug-14 03:32N 51°54' E 001°41'0 0.0
2015-Aug-14 02:32N 51°54' E 001°41'0 0.0
2015-Aug-14 01:32N 51°54' E 001°41'0 0.0
2015-Aug-14 00:32N 51°54' E 001°41'0 0.3
2015-Aug-13 23:32N 51°53' E 001°40'0 0.2
2015-Aug-13 22:32N 51°53' E 001°40'0 0.0
2015-Aug-13 21:32N 51°53' E 001°40'0 0.0
2015-Aug-13 20:32N 51°53' E 001°40'0 0.0
2015-Aug-13 19:32N 51°53' E 001°40'0 0.0
2015-Aug-13 18:32N 51°53' E 001°40'0 0.0
2015-Aug-13 17:32N 51°53' E 001°40'0 0.1
2015-Aug-13 16:32N 51°53' E 001°41'0 0.2
2015-Aug-13 15:32N 51°54' E 001°41'0 0.0
2015-Aug-13 14:32N 51°54' E 001°41'0 0.1
2015-Aug-13 13:32N 51°53' E 001°41'0 0.3
2015-Aug-13 12:32N 51°53' E 001°40'0 0.2
2015-Aug-13 11:32N 51°53' E 001°40'0 0.1
2015-Aug-13 10:32N 51°53' E 001°40'0 0.0
2015-Aug-13 09:32N 51°53' E 001°40'0 0.0
2015-Aug-13 08:32N 51°53' E 001°40'0 0.0
2015-Aug-13 07:32N 51°53' E 001°40'0 0.0
2015-Aug-13 06:32N 51°53' E 001°40'0 0.0
2015-Aug-13 05:32N 51°53' E 001°40'0 0.0
2015-Aug-13 04:32N 51°53' E 001°40'0 0.3
2015-Aug-13 03:32N 51°54' E 001°40'7 7.7
2015-Aug-13 02:34N 51°49' E 001°49'1717.1
2015-Aug-13 01:34N 51°32' E 001°52'1616.2
2015-Aug-13 00:34N 51°22' E 002°12'1514.7
2015-Aug-12 23:34N 51°23' E 002°35'1515.0
2015-Aug-12 22:33N 51°24' E 002°59'1616.2
2015-Aug-12 21:33N 51°25' E 003°25'1110.7
2015-Aug-12 20:34N 51°25' E 003°43'1010.3
2015-Aug-12 19:34N 51°26' E 003°59'1211.5
2015-Aug-12 18:34N 51°21' E 004°16'1 1.0
2015-Aug-12 17:32N 51°21' E 004°17'2 1.8
2015-Aug-12 16:33N 51°20' E 004°19'1 0.5
2015-Aug-12 15:30N 51°20' E 004°20'0 0.0
2015-Aug-12 14:30N 51°20' E 004°20'0 0.0
2015-Aug-12 13:33N 51°20' E 004°20'0 0.0
2015-Aug-12 12:28N 51°20' E 004°20'0 0.0
2015-Aug-12 11:28N 51°20' E 004°20'0 0.0
2015-Aug-12 10:33N 51°20' E 004°20'0 0.0
2015-Aug-12 09:33N 51°20' E 004°20'0 0.0
2015-Aug-12 08:31N 51°20' E 004°20'0 0.0
2015-Aug-12 07:31N 51°20' E 004°20'0 0.0
2015-Aug-12 06:32N 51°20' E 004°20'0 0.0
2015-Aug-12 05:33N 51°20' E 004°20'0 0.0
2015-Aug-12 04:33N 51°20' E 004°20'0 0.0
2015-Aug-12 03:33N 51°20' E 004°20'0 0.0
2015-Aug-12 02:33N 51°20' E 004°20'0 0.0
2015-Aug-12 01:30N 51°20' E 004°20'0 0.0
2015-Aug-12 00:33N 51°20' E 004°20'0 0.0
2015-Aug-11 23:33N 51°20' E 004°20'0 0.0
2015-Aug-11 22:33N 51°20' E 004°20'0 0.0
2015-Aug-11 21:32N 51°20' E 004°20'0 0.0
2015-Aug-11 20:32N 51°20' E 004°20'0 0.2
2015-Aug-11 19:33N 51°20' E 004°20'2 2.0
2015-Aug-11 18:34N 51°21' E 004°17'0 0.0
2015-Aug-11 17:32N 51°21' E 004°17'3 2.6
2015-Aug-11 16:33N 51°22' E 004°13'10 9.6
2015-Aug-11 15:34N 51°26' E 003°60'1010.3
2015-Aug-11 14:34N 51°22' E 003°45'10 9.5
2015-Aug-11 13:33N 51°25' E 003°30'1312.9
2015-Aug-11 12:33N 51°24' E 003°10'8 7.9
2015-Aug-11 11:33N 51°32' E 003°08'1414.0
2015-Aug-11 10:33N 51°45' E 003°13'3 3.2
2015-Aug-11 09:33N 51°48' E 003°15'1010.1
2015-Aug-11 08:33N 51°58' E 003°20'1918.5
2015-Aug-11 07:33N 52°17' E 003°24'2020.4
2015-Aug-11 06:33N 52°37' E 003°30'1817.4
2015-Aug-11 05:33N 52°50' E 003°49'3711.2
2015-Aug-11 02:17N 53°17' E 004°29'1010.6
2015-Aug-11 01:20N 53°27' E 004°34'1011.0
2015-Aug-11 00:23N 53°37' E 004°40'1511.6
2015-Aug-10 23:05N 53°51' E 004°49'611.7
2015-Aug-10 22:33N 53°57' E 004°53'1211.7
2015-Aug-10 21:33N 54°08' E 004°60'1111.6
2015-Aug-10 20:34N 54°18' E 005°07'1211.6
2015-Aug-10 19:34N 54°29' E 005°16'1211.6
2015-Aug-10 18:32N 54°39' E 005°26'1111.4
2015-Aug-10 17:34N 54°49' E 005°37'1111.3
2015-Aug-10 16:33N 54°58' E 005°47'1111.2
2015-Aug-10 15:32N 55°08' E 005°58'1111.1
2015-Aug-10 14:33N 55°17' E 006°07'1111.2
2015-Aug-10 13:33N 55°27' E 006°17'1111.4
2015-Aug-10 12:33N 55°36' E 006°28'1211.3
2015-Aug-10 11:31N 55°47' E 006°39'1111.3
2015-Aug-10 10:33N 55°56' E 006°49'1111.2
2015-Aug-10 09:33N 56°05' E 007°01'6 6.6
2015-Aug-10 08:33N 56°11' E 007°06'1514.7
2015-Aug-10 07:33N 56°23' E 007°20'2320.1
2015-Aug-10 06:24N 56°43' E 007°43'1617.0
2015-Aug-10 05:26N 56°57' E 007°59'1415.4
2015-Aug-10 04:33N 57°08' E 008°12'2015.2
2015-Aug-10 03:15N 57°22' E 008°38'1115.8
2015-Aug-10 02:33N 57°29' E 008°54'1615.9
2015-Aug-10 01:33N 57°38' E 009°18'1716.1
2015-Aug-10 00:31N 57°42' E 009°48'1515.8
2015-Aug-09 23:33N 57°46' E 010°16'1515.4
2015-Aug-09 22:33N 57°48' E 010°45'1515.2
2015-Aug-09 21:33N 57°39' E 011°08'  

Dump ship's entire track history